Terminal Aerodrome Forecast
Issued by NWS Knoxville/Tri Cities, TN

Home | Current Version | Previous Version | Text Only | Print | Product List | Glossary On
Versions: 1 2 3 4 5 6 7 8 9 10 11 12 13 14 15 16 17 18 19 20 21 22 23 24 25 26 27 28 29 30 31 32 33 34
834
FTUS44 KMRX 271120
TAFTYS
TAF
KTYS 271120Z 2712/2812 00000KT P6SM OVC100
     FM271600 21009KT P6SM OVC100
     FM280300 18007KT P6SM OVC050
     FM280900 19008KT P6SM VCSH OVC040=

USA.gov is the U.S. government's official web portal to all federal, state and local government web resources and services.